Time;durP1;ratioP1;P1;durP2;ratioP2;P2;SDS_P1;SDS_P2;PMS_P1;PMS_P2;Temp;Humidity;BMP_temperature;BMP_pressure;BME280_temperature;BME280_humidity;BME280_pressure;Samples;Min_cycle;Max_cycle;Signal;HPM_P1;HPM_P2
2021/04/03 00:00:37;;;;;;;5.13;1.65;;;;;;;;;;3600468;39;20079;-56
2021/04/03 00:03:04;;;;;;;5.95;1.63;;;;;;;;;;3601992;39;20163;-53
2021/04/03 00:05:31;;;;;;;4.65;1.88;;;;;;;;;;3601306;39;20148;-55
2021/04/03 00:07:57;;;;;;;5.45;1.75;;;;;;;;;;3599249;39;20072;-52
2021/04/03 00:10:35;;;;;;;7.72;1.85;;;;;;;;;;3601214;39;20176;-55
2021/04/03 00:13:00;;;;;;;6.15;1.60;;;;;;;;;;3601056;39;20150;-51
2021/04/03 00:15:27;;;;;;;8.38;2.05;;;;;;;;;;3601588;39;20095;-54
2021/04/03 00:17:54;;;;;;;5.75;1.67;;;;;;;;;;3601235;39;20264;-52
2021/04/03 00:20:21;;;;;;;3.55;1.75;;;;;;;;;;3601274;39;20362;-53
2021/04/03 00:22:47;;;;;;;4.88;1.50;;;;;;;;;;3601202;39;20075;-55
2021/04/03 00:25:14;;;;;;;3.97;2.00;;;;;;;;;;3600581;39;20080;-56
2021/04/03 00:27:40;;;;;;;4.78;1.95;;;;;;;;;;3600679;39;20520;-53
2021/04/03 00:30:17;;;;;;;7.80;1.60;;;;;;;;;;3601820;39;20188;-52
2021/04/03 00:32:48;;;;;;;6.90;2.03;;;;;;;;;;3601587;39;20087;-53
2021/04/03 00:35:17;;;;;;;4.55;1.52;;;;;;;;;;3600040;39;20083;-54
2021/04/03 00:37:42;;;;;;;4.90;1.70;;;;;;;;;;3601086;39;20180;-56
2021/04/03 00:40:18;;;;;;;7.53;1.80;;;;;;;;;;3598903;39;20121;-52
2021/04/03 00:42:45;;;;;;;4.32;1.83;;;;;;;;;;3601584;39;20115;-56
2021/04/03 00:45:11;;;;;;;4.63;1.52;;;;;;;;;;3599238;39;20068;-51
2021/04/03 00:47:37;;;;;;;6.07;2.42;;;;;;;;;;3601085;39;20083;-51
2021/04/03 00:50:04;;;;;;;4.35;1.70;;;;;;;;;;3601612;39;20416;-54
2021/04/03 00:52:29;;;;;;;4.32;1.70;;;;;;;;;;3600738;39;20172;-53
2021/04/03 00:54:55;;;;;;;5.80;2.15;;;;;;;;;;3601583;39;20368;-54
2021/04/03 00:57:20;;;;;;;4.68;1.80;;;;;;;;;;3600163;39;20059;-55
2021/04/03 00:59:46;;;;;;;4.25;1.77;;;;;;;;;;3601425;39;20091;-54
2021/04/03 01:02:12;;;;;;;9.20;2.28;;;;;;;;;;3599425;39;20162;-55
2021/04/03 01:04:38;;;;;;;4.18;1.85;;;;;;;;;;3601345;39;20075;-54
2021/04/03 01:07:04;;;;;;;6.53;1.67;;;;;;;;;;3602977;39;20072;-53
2021/04/03 01:09:35;;;;;;;8.25;2.35;;;;;;;;;;3602553;39;20150;-54
2021/04/03 01:12:06;;;;;;;7.25;2.60;;;;;;;;;;3601180;39;20163;-55
2021/04/03 01:14:47;;;;;;;6.65;2.03;;;;;;;;;;3602502;39;20076;-54
2021/04/03 01:17:54;;;;;;;11.85;2.35;;;;;;;;;;3603289;39;20068;-55
2021/04/03 01:21:02;;;;;;;6.60;1.85;;;;;;;;;;3595548;39;20076;-54
2021/04/03 01:23:47;;;;;;;5.28;2.05;;;;;;;;;;3598811;39;20079;-55
2021/04/03 01:26:37;;;;;;;9.13;2.25;;;;;;;;;;3603027;39;20288;-56
2021/04/03 01:29:40;;;;;;;8.52;2.53;;;;;;;;;;3600994;39;20076;-51
2021/04/03 01:32:08;;;;;;;6.88;2.42;;;;;;;;;;3577087;40;20167;-54
2021/04/03 01:34:39;;;;;;;7.07;2.50;;;;;;;;;;3579568;40;20077;-55
2021/04/03 01:37:09;;;;;;;6.68;2.35;;;;;;;;;;3591563;39;20361;-55
2021/04/03 01:39:36;;;;;;;17.92;3.30;;;;;;;;;;3602022;39;20099;-52
2021/04/03 01:42:06;;;;;;;9.38;3.42;;;;;;;;;;3602702;39;20159;-55
2021/04/03 01:44:35;;;;;;;5.35;2.25;;;;;;;;;;3602268;39;20145;-53
2021/04/03 01:47:02;;;;;;;4.97;2.55;;;;;;;;;;3601318;39;20092;-55
2021/04/03 01:49:30;;;;;;;14.45;3.03;;;;;;;;;;3601039;39;20286;-55
2021/04/03 01:51:56;;;;;;;8.18;2.70;;;;;;;;;;3600049;39;20103;-55
2021/04/03 01:54:24;;;;;;;6.88;3.22;;;;;;;;;;3602001;39;20056;-52
2021/04/03 01:56:52;;;;;;;5.68;2.60;;;;;;;;;;3602373;39;20090;-54
2021/04/03 01:59:18;;;;;;;6.72;2.92;;;;;;;;;;3600299;39;20068;-56
2021/04/03 02:01:45;;;;;;;8.15;3.40;;;;;;;;;;3600815;39;20064;-52
2021/04/03 02:04:16;;;;;;;6.53;2.90;;;;;;;;;;3601210;39;20086;-50
2021/04/03 02:06:46;;;;;;;7.95;3.35;;;;;;;;;;3602336;39;20083;-55
2021/04/03 02:09:13;;;;;;;6.35;3.55;;;;;;;;;;3602587;39;20268;-54
2021/04/03 02:11:42;;;;;;;7.20;3.20;;;;;;;;;;3600069;39;20065;-53
2021/04/03 02:14:08;;;;;;;8.38;3.00;;;;;;;;;;3602775;39;20079;-52
2021/04/03 02:16:36;;;;;;;5.95;2.75;;;;;;;;;;3601363;39;20072;-55
2021/04/03 02:19:06;;;;;;;5.53;3.17;;;;;;;;;;3602735;39;20403;-53
2021/04/03 02:21:34;;;;;;;9.57;3.75;;;;;;;;;;3601337;39;20471;-55
2021/04/03 02:24:00;;;;;;;6.75;3.25;;;;;;;;;;3602660;39;20401;-54
2021/04/03 02:26:29;;;;;;;14.13;3.38;;;;;;;;;;3602328;39;20075;-55
2021/04/03 02:28:55;;;;;;;9.63;3.97;;;;;;;;;;3601296;39;20072;-51
2021/04/03 02:31:20;;;;;;;9.02;3.97;;;;;;;;;;3600782;39;20079;-53
2021/04/03 02:33:46;;;;;;;8.02;3.65;;;;;;;;;;3602802;39;20092;-54
2021/04/03 02:36:11;;;;;;;11.98;4.47;;;;;;;;;;3602790;39;20081;-53
2021/04/03 02:38:37;;;;;;;8.38;4.28;;;;;;;;;;3601051;39;20079;-54
2021/04/03 02:41:07;;;;;;;11.07;3.60;;;;;;;;;;3599381;39;20257;-56
2021/04/03 02:43:57;;;;;;;7.80;3.58;;;;;;;;;;3601855;39;20122;-52
2021/04/03 02:46:34;;;;;;;8.60;4.47;;;;;;;;;;3600223;39;20087;-55
2021/04/03 02:49:06;;;;;;;8.82;3.97;;;;;;;;;;3600224;39;20079;-54
2021/04/03 02:51:36;;;;;;;7.78;3.65;;;;;;;;;;3601314;39;20154;-55
2021/04/03 02:54:09;;;;;;;9.77;4.63;;;;;;;;;;3602453;39;20064;-54
2021/04/03 02:56:39;;;;;;;8.68;3.38;;;;;;;;;;3600501;39;20072;-55
2021/04/03 02:59:06;;;;;;;6.65;3.67;;;;;;;;;;3602171;39;20103;-55
2021/04/03 03:01:33;;;;;;;12.65;3.63;;;;;;;;;;3601684;39;20353;-55
2021/04/03 03:04:00;;;;;;;11.77;4.85;;;;;;;;;;3602433;39;20091;-53
2021/04/03 03:06:26;;;;;;;9.38;4.32;;;;;;;;;;3601318;39;20068;-55
2021/04/03 03:08:53;;;;;;;7.50;4.13;;;;;;;;;;3602652;39;20106;-51
2021/04/03 03:11:21;;;;;;;6.55;3.55;;;;;;;;;;3601501;39;20072;-52
2021/04/03 03:13:47;;;;;;;6.80;4.13;;;;;;;;;;3602171;39;20211;-53
2021/04/03 03:16:15;;;;;;;7.78;3.75;;;;;;;;;;3600602;39;20078;-54
2021/04/03 03:18:42;;;;;;;8.50;4.05;;;;;;;;;;3601941;39;20083;-53
2021/04/03 03:21:08;;;;;;;9.57;4.32;;;;;;;;;;3601124;39;20474;-51
2021/04/03 03:23:34;;;;;;;8.23;4.72;;;;;;;;;;3600271;39;20075;-56
2021/04/03 03:25:59;;;;;;;7.82;4.15;;;;;;;;;;3602509;39;20281;-52
2021/04/03 03:28:26;;;;;;;10.07;3.70;;;;;;;;;;3598802;39;20071;-56
2021/04/03 03:30:52;;;;;;;10.65;4.85;;;;;;;;;;3601692;39;20364;-55
2021/04/03 03:33:17;;;;;;;8.02;4.07;;;;;;;;;;3600635;39;20076;-52
2021/04/03 03:35:43;;;;;;;12.75;4.15;;;;;;;;;;3602242;39;20180;-54
2021/04/03 03:38:10;;;;;;;9.07;4.68;;;;;;;;;;3602151;39;20185;-56
2021/04/03 03:40:35;;;;;;;7.15;3.95;;;;;;;;;;3598681;39;20064;-52
2021/04/03 03:43:01;;;;;;;10.27;4.57;;;;;;;;;;3602105;39;20363;-51
2021/04/03 03:45:27;;;;;;;8.10;4.28;;;;;;;;;;3601588;39;20068;-55
2021/04/03 03:47:54;;;;;;;11.75;4.80;;;;;;;;;;3602171;39;20092;-53
2021/04/03 03:50:20;;;;;;;9.05;4.63;;;;;;;;;;3599765;39;20399;-55
2021/04/03 03:52:45;;;;;;;10.15;4.15;;;;;;;;;;3601828;39;20100;-53
2021/04/03 03:55:12;;;;;;;8.77;4.30;;;;;;;;;;3601731;39;20394;-55
2021/04/03 03:57:37;;;;;;;8.52;4.35;;;;;;;;;;3598153;39;20130;-55
2021/04/03 04:00:05;;;;;;;9.02;3.90;;;;;;;;;;3600478;39;20216;-54
2021/04/03 04:02:30;;;;;;;10.45;4.55;;;;;;;;;;3601164;39;20172;-55
2021/04/03 04:04:55;;;;;;;17.15;4.75;;;;;;;;;;3601408;39;20165;-54
2021/04/03 04:07:21;;;;;;;9.95;4.95;;;;;;;;;;3601117;39;20079;-52
2021/04/03 04:09:46;;;;;;;7.07;4.15;;;;;;;;;;3601689;39;20096;-54
2021/04/03 04:12:12;;;;;;;7.72;5.25;;;;;;;;;;3600511;39;20363;-53
2021/04/03 04:14:37;;;;;;;11.05;4.93;;;;;;;;;;3599693;39;20103;-56
2021/04/03 04:17:03;;;;;;;7.75;4.32;;;;;;;;;;3601808;39;20072;-55
2021/04/03 04:19:29;;;;;;;9.73;4.38;;;;;;;;;;3600898;39;20165;-50
2021/04/03 04:21:55;;;;;;;9.07;4.53;;;;;;;;;;3599562;39;20072;-54
2021/04/03 04:24:21;;;;;;;6.70;3.95;;;;;;;;;;3601212;39;20177;-54
2021/04/03 04:26:47;;;;;;;8.82;4.43;;;;;;;;;;3601171;39;20080;-55
2021/04/03 04:29:13;;;;;;;6.57;3.72;;;;;;;;;;3601695;39;20100;-54
2021/04/03 04:31:38;;;;;;;8.15;4.97;;;;;;;;;;3599402;39;20068;-53
2021/04/03 04:34:04;;;;;;;9.13;4.80;;;;;;;;;;3601800;39;20947;-50
2021/04/03 04:36:29;;;;;;;11.48;5.03;;;;;;;;;;3601267;39;20072;-54
2021/04/03 04:38:55;;;;;;;7.15;3.30;;;;;;;;;;3601898;39;20068;-54
2021/04/03 04:41:20;;;;;;;6.25;3.60;;;;;;;;;;3602257;39;20151;-54
2021/04/03 04:43:45;;;;;;;5.95;3.40;;;;;;;;;;3603010;39;20286;-54
2021/04/03 04:46:11;;;;;;;12.05;3.15;;;;;;;;;;3601097;39;20107;-53
2021/04/03 04:48:36;;;;;;;7.70;2.63;;;;;;;;;;3599981;39;20088;-49
2021/04/03 04:51:02;;;;;;;11.45;3.13;;;;;;;;;;3602584;39;20060;-56
2021/04/03 04:53:27;;;;;;;9.75;3.13;;;;;;;;;;3602350;39;20091;-53
2021/04/03 04:55:53;;;;;;;9.50;3.60;;;;;;;;;;3602659;39;20095;-52
2021/04/03 04:58:18;;;;;;;8.38;3.58;;;;;;;;;;3600547;39;20554;-56
2021/04/03 05:00:43;;;;;;;7.47;2.83;;;;;;;;;;3601888;39;20159;-54
2021/04/03 05:03:09;;;;;;;8.05;3.50;;;;;;;;;;3603282;39;20095;-54
2021/04/03 05:05:34;;;;;;;8.80;3.17;;;;;;;;;;3592494;39;20084;-55
2021/04/03 05:08:00;;;;;;;8.88;2.97;;;;;;;;;;3602144;39;20159;-51
2021/04/03 05:10:25;;;;;;;8.07;3.65;;;;;;;;;;3602209;39;20087;-53
2021/04/03 05:12:51;;;;;;;8.68;3.55;;;;;;;;;;3602793;39;20086;-57
2021/04/03 05:15:16;;;;;;;7.50;3.03;;;;;;;;;;3600059;39;20113;-53
2021/04/03 05:17:41;;;;;;;5.88;2.58;;;;;;;;;;3602750;39;20087;-54
2021/04/03 05:20:07;;;;;;;6.90;3.15;;;;;;;;;;3602937;39;20344;-51
2021/04/03 05:22:33;;;;;;;7.00;3.53;;;;;;;;;;3602335;39;20149;-54
2021/04/03 05:24:58;;;;;;;6.00;2.72;;;;;;;;;;3600691;39;20083;-54
2021/04/03 05:27:24;;;;;;;5.70;3.10;;;;;;;;;;3601551;39;20083;-55
2021/04/03 05:29:49;;;;;;;6.78;3.30;;;;;;;;;;3599390;39;20097;-55
2021/04/03 05:32:15;;;;;;;5.78;2.80;;;;;;;;;;3597977;39;20079;-52
2021/04/03 05:34:40;;;;;;;6.38;2.80;;;;;;;;;;3600260;39;20096;-54
2021/04/03 05:37:06;;;;;;;14.70;3.47;;;;;;;;;;3602931;39;20072;-53
2021/04/03 05:39:31;;;;;;;6.45;3.33;;;;;;;;;;3602565;39;20101;-52
2021/04/03 05:41:56;;;;;;;5.85;3.25;;;;;;;;;;3600680;39;20470;-54
2021/04/03 05:44:22;;;;;;;8.98;3.53;;;;;;;;;;3600368;39;20064;-55
2021/04/03 05:46:49;;;;;;;6.97;3.45;;;;;;;;;;3601121;39;20159;-53
2021/04/03 05:49:17;;;;;;;7.75;3.17;;;;;;;;;;3602329;39;20079;-53
2021/04/03 05:51:42;;;;;;;7.45;3.88;;;;;;;;;;3608447;39;20483;-52
2021/04/03 05:54:07;;;;;;;8.00;3.28;;;;;;;;;;3612808;39;20137;-51
2021/04/03 05:56:34;;;;;;;7.20;3.22;;;;;;;;;;3612005;39;20220;-52
2021/04/03 05:59:00;;;;;;;15.05;4.45;;;;;;;;;;3611823;39;20055;-48
2021/04/03 06:01:25;;;;;;;10.98;3.65;;;;;;;;;;3612154;39;20140;-52
2021/04/03 06:03:51;;;;;;;6.28;2.65;;;;;;;;;;3612499;39;20113;-49
2021/04/03 06:06:16;;;;;;;10.25;3.83;;;;;;;;;;3608787;39;20264;-53
2021/04/03 06:08:42;;;;;;;12.85;3.33;;;;;;;;;;3610719;39;20151;-52
2021/04/03 06:11:16;;;;;;;10.88;3.40;;;;;;;;;;3605584;39;20075;-50
2021/04/03 06:14:05;;;;;;;9.65;3.25;;;;;;;;;;3607787;39;20109;-51
2021/04/03 06:16:35;;;;;;;15.32;3.88;;;;;;;;;;3604192;39;20071;-52
2021/04/03 06:19:25;;;;;;;9.65;3.50;;;;;;;;;;3611195;39;20068;-54
2021/04/03 06:21:53;;;;;;;14.45;3.78;;;;;;;;;;3603834;39;20150;-54
2021/04/03 06:24:24;;;;;;;7.93;3.25;;;;;;;;;;3608997;39;20354;-55
2021/04/03 06:26:59;;;;;;;13.07;3.40;;;;;;;;;;3609649;39;20081;-54
2021/04/03 06:29:34;;;;;;;14.10;3.25;;;;;;;;;;3609589;39;20150;-55
2021/04/03 06:32:00;;;;;;;11.35;3.38;;;;;;;;;;3610031;39;20086;-53
2021/04/03 06:34:28;;;;;;;9.05;3.45;;;;;;;;;;3611611;39;20168;-55
2021/04/03 06:36:54;;;;;;;10.45;3.35;;;;;;;;;;3611694;39;20122;-56
2021/04/03 06:39:20;;;;;;;10.60;3.40;;;;;;;;;;3609640;39;20068;-54
2021/04/03 06:41:46;;;;;;;12.73;3.75;;;;;;;;;;3611352;39;20063;-54
2021/04/03 06:44:12;;;;;;;10.23;3.22;;;;;;;;;;3611232;39;20075;-55
2021/04/03 06:46:39;;;;;;;10.80;3.60;;;;;;;;;;3600633;39;20173;-54
2021/04/03 06:49:05;;;;;;;10.75;3.85;;;;;;;;;;3611456;39;20153;-55
2021/04/03 06:51:32;;;;;;;11.52;3.63;;;;;;;;;;3604167;39;20279;-54
2021/04/03 06:54:00;;;;;;;13.07;3.50;;;;;;;;;;3610676;39;20075;-54
2021/04/03 06:56:27;;;;;;;14.90;4.10;;;;;;;;;;3611873;39;20071;-55
2021/04/03 06:59:10;;;;;;;8.80;3.20;;;;;;;;;;3606705;39;20082;-54
2021/04/03 07:01:36;;;;;;;8.20;3.22;;;;;;;;;;3604046;39;20079;-55
2021/04/03 07:04:08;;;;;;;11.55;3.10;;;;;;;;;;3589768;39;20078;-53
2021/04/03 07:06:36;;;;;;;8.32;3.20;;;;;;;;;;3605799;39;20099;-55
2021/04/03 07:09:04;;;;;;;11.20;3.83;;;;;;;;;;3610526;39;20074;-56
2021/04/03 07:11:30;;;;;;;11.05;3.72;;;;;;;;;;3608687;39;20075;-54
2021/04/03 07:13:58;;;;;;;12.20;3.83;;;;;;;;;;3607135;39;20072;-53
2021/04/03 07:16:25;;;;;;;15.82;3.55;;;;;;;;;;3608944;39;20820;-56
2021/04/03 07:18:50;;;;;;;12.75;2.95;;;;;;;;;;3612229;39;20079;-53
2021/04/03 07:21:16;;;;;;;10.75;3.55;;;;;;;;;;3611963;39;20354;-55
2021/04/03 07:23:42;;;;;;;13.13;3.50;;;;;;;;;;3601793;39;20067;-53
2021/04/03 07:26:12;;;;;;;9.18;3.83;;;;;;;;;;3611617;39;20167;-53
2021/04/03 07:28:39;;;;;;;7.18;2.58;;;;;;;;;;3610966;39;20079;-54
2021/04/03 07:31:06;;;;;;;9.20;3.33;;;;;;;;;;3610160;39;20079;-55
2021/04/03 07:33:31;;;;;;;13.38;3.33;;;;;;;;;;3609455;39;20075;-55
2021/04/03 07:35:58;;;;;;;8.93;3.40;;;;;;;;;;3610841;39;20137;-54
2021/04/03 07:38:30;;;;;;;6.18;2.90;;;;;;;;;;3609604;39;20176;-55
2021/04/03 07:40:57;;;;;;;8.07;3.20;;;;;;;;;;3608838;39;20078;-52
2021/04/03 07:43:29;;;;;;;10.07;3.42;;;;;;;;;;3610845;39;20578;-51
2021/04/03 07:45:58;;;;;;;10.23;3.53;;;;;;;;;;3610345;39;20087;-55
2021/04/03 07:48:38;;;;;;;13.45;3.05;;;;;;;;;;3611550;39;20063;-54
2021/04/03 07:51:08;;;;;;;8.70;3.13;;;;;;;;;;3611039;39;20416;-53
2021/04/03 07:53:33;;;;;;;8.07;2.85;;;;;;;;;;3609976;39;20443;-54
2021/04/03 07:55:59;;;;;;;8.18;3.05;;;;;;;;;;3612330;39;20352;-50
2021/04/03 07:58:26;;;;;;;11.38;3.15;;;;;;;;;;3610852;39;20063;-52
2021/04/03 08:00:52;;;;;;;7.30;2.92;;;;;;;;;;3607228;39;20142;-56
2021/04/03 08:03:27;;;;;;;7.97;3.03;;;;;;;;;;3610569;39;20065;-53
2021/04/03 08:06:06;;;;;;;9.85;2.83;;;;;;;;;;3612306;39;20068;-51
2021/04/03 08:08:38;;;;;;;7.88;3.20;;;;;;;;;;3611681;39;20102;-56
2021/04/03 08:11:15;;;;;;;7.70;2.35;;;;;;;;;;3609591;39;20073;-51
2021/04/03 08:13:43;;;;;;;10.13;2.85;;;;;;;;;;3611906;39;20092;-56
2021/04/03 08:16:11;;;;;;;10.30;3.17;;;;;;;;;;3601430;39;20170;-54
2021/04/03 08:18:39;;;;;;;8.35;3.00;;;;;;;;;;3611198;39;20110;-54
2021/04/03 08:21:06;;;;;;;10.68;2.90;;;;;;;;;;3603089;39;20083;-54
2021/04/03 08:23:47;;;;;;;7.55;2.92;;;;;;;;;;3612215;39;20380;-56
2021/04/03 08:26:14;;;;;;;10.20;3.10;;;;;;;;;;3611875;39;20411;-53
2021/04/03 08:28:40;;;;;;;5.95;2.47;;;;;;;;;;3611630;39;20074;-55
2021/04/03 08:31:26;;;;;;;8.52;3.33;;;;;;;;;;3607932;39;20367;-55
2021/04/03 08:33:54;;;;;;;10.95;2.72;;;;;;;;;;3613053;39;20366;-53
2021/04/03 08:36:24;;;;;;;9.35;3.10;;;;;;;;;;3609446;39;20069;-54
2021/04/03 08:38:50;;;;;;;13.88;3.13;;;;;;;;;;3612370;39;20409;-54
2021/04/03 08:41:23;;;;;;;6.60;2.42;;;;;;;;;;3612901;39;20133;-54
2021/04/03 08:43:51;;;;;;;8.25;3.00;;;;;;;;;;3611709;39;20071;-53
2021/04/03 08:46:18;;;;;;;8.73;2.40;;;;;;;;;;3609482;39;20390;-54
2021/04/03 08:48:46;;;;;;;8.50;2.35;;;;;;;;;;3611234;39;20083;-54
2021/04/03 08:51:12;;;;;;;10.75;2.60;;;;;;;;;;3611433;39;20632;-55
2021/04/03 08:53:49;;;;;;;6.90;2.90;;;;;;;;;;3612263;39;20079;-55
2021/04/03 08:56:26;;;;;;;7.50;2.75;;;;;;;;;;3611976;39;20083;-53
2021/04/03 08:58:52;;;;;;;9.45;3.20;;;;;;;;;;3612076;39;20080;-51
2021/04/03 09:01:20;;;;;;;7.50;2.72;;;;;;;;;;3610316;39;20393;-56
2021/04/03 09:03:51;;;;;;;8.38;2.85;;;;;;;;;;3592141;39;20288;-53
2021/04/03 09:06:43;;;;;;;8.40;2.50;;;;;;;;;;3604908;39;20076;-55
2021/04/03 09:09:10;;;;;;;7.05;2.63;;;;;;;;;;3604849;39;20075;-54
2021/04/03 09:11:36;;;;;;;9.98;3.00;;;;;;;;;;3604818;39;20072;-56
2021/04/03 09:14:02;;;;;;;6.15;2.47;;;;;;;;;;3597056;39;20067;-55
2021/04/03 09:16:35;;;;;;;8.40;2.78;;;;;;;;;;3607580;39;20059;-55
2021/04/03 09:19:01;;;;;;;7.90;2.70;;;;;;;;;;3609515;39;20178;-54
2021/04/03 09:21:26;;;;;;;8.15;2.28;;;;;;;;;;3606243;39;20088;-55
2021/04/03 09:23:54;;;;;;;10.60;2.58;;;;;;;;;;3606448;39;20128;-54
2021/04/03 09:26:37;;;;;;;6.63;2.20;;;;;;;;;;3605626;39;20212;-54
2021/04/03 09:29:11;;;;;;;10.90;2.35;;;;;;;;;;3608455;39;20107;-56
2021/04/03 09:31:42;;;;;;;9.25;2.40;;;;;;;;;;3597484;39;20151;-56
2021/04/03 09:34:08;;;;;;;5.63;2.03;;;;;;;;;;3608574;39;20169;-54
2021/04/03 09:36:51;;;;;;;6.82;2.45;;;;;;;;;;3606997;39;20260;-52
2021/04/03 09:39:19;;;;;;;9.82;3.10;;;;;;;;;;3609397;39;20067;-55
2021/04/03 09:41:50;;;;;;;10.80;2.72;;;;;;;;;;3609925;39;20170;-52
2021/04/03 09:44:16;;;;;;;8.68;2.75;;;;;;;;;;3611021;39;20160;-54
2021/04/03 09:46:43;;;;;;;11.70;2.75;;;;;;;;;;3610344;39;20072;-54
2021/04/03 09:49:10;;;;;;;11.40;2.58;;;;;;;;;;3610053;39;20079;-52
2021/04/03 09:51:36;;;;;;;6.47;2.10;;;;;;;;;;3609750;39;20087;-53
2021/04/03 09:54:03;;;;;;;11.35;2.45;;;;;;;;;;3610868;39;20099;-54
2021/04/03 09:56:28;;;;;;;15.30;3.25;;;;;;;;;;3607399;39;20212;-54
2021/04/03 09:58:54;;;;;;;8.40;3.85;;;;;;;;;;3610042;39;20800;-55
2021/04/03 10:01:21;;;;;;;10.23;2.92;;;;;;;;;;3609691;39;20077;-53
2021/04/03 10:03:46;;;;;;;8.27;2.20;;;;;;;;;;3608591;39;20251;-51
2021/04/03 10:06:12;;;;;;;7.20;2.85;;;;;;;;;;3603948;39;20117;-53
2021/04/03 10:08:37;;;;;;;7.50;3.05;;;;;;;;;;3607450;39;20535;-55
2021/04/03 10:11:02;;;;;;;7.57;2.53;;;;;;;;;;3610217;39;20078;-55
2021/04/03 10:13:28;;;;;;;10.93;2.70;;;;;;;;;;3606593;39;20072;-55
2021/04/03 10:15:53;;;;;;;14.88;2.90;;;;;;;;;;3610214;39;20172;-55
2021/04/03 10:18:19;;;;;;;9.75;3.17;;;;;;;;;;3598726;39;20087;-55
2021/04/03 10:20:45;;;;;;;8.20;2.95;;;;;;;;;;3609236;39;20170;-54
2021/04/03 10:23:10;;;;;;;8.45;2.50;;;;;;;;;;3610863;39;20582;-54
2021/04/03 10:25:36;;;;;;;7.38;2.58;;;;;;;;;;3609673;39;20738;-55
2021/04/03 10:28:01;;;;;;;6.68;2.22;;;;;;;;;;3609821;39;20500;-55
2021/04/03 10:30:27;;;;;;;6.13;2.40;;;;;;;;;;3608921;39;20074;-56
2021/04/03 10:32:52;;;;;;;8.45;2.20;;;;;;;;;;3609006;39;20180;-50
2021/04/03 10:35:18;;;;;;;6.32;2.00;;;;;;;;;;3608003;39;20278;-54
2021/04/03 10:37:43;;;;;;;9.60;2.50;;;;;;;;;;3608479;39;20067;-51
2021/04/03 10:40:09;;;;;;;9.75;2.53;;;;;;;;;;3608834;39;20152;-52
2021/04/03 10:42:34;;;;;;;10.05;2.55;;;;;;;;;;3609205;39;20064;-52
2021/04/03 10:45:02;;;;;;;9.13;2.88;;;;;;;;;;3610306;39;20079;-53
2021/04/03 10:47:27;;;;;;;11.02;2.22;;;;;;;;;;3609897;39;20384;-56
2021/04/03 10:49:53;;;;;;;7.55;2.40;;;;;;;;;;3608736;39;20142;-52
2021/04/03 10:52:19;;;;;;;9.25;3.15;;;;;;;;;;3607831;39;20151;-54
2021/04/03 10:54:45;;;;;;;15.77;3.33;;;;;;;;;;3609829;39;20151;-56
2021/04/03 10:57:10;;;;;;;7.75;2.60;;;;;;;;;;3607245;39;20071;-55
2021/04/03 10:59:36;;;;;;;5.38;2.33;;;;;;;;;;3609603;39;20087;-53
2021/04/03 11:02:02;;;;;;;7.28;2.35;;;;;;;;;;3608247;39;20095;-55
2021/04/03 11:04:28;;;;;;;6.13;2.38;;;;;;;;;;3608689;39;20174;-53
2021/04/03 11:06:54;;;;;;;6.97;2.17;;;;;;;;;;3596015;39;20162;-55
2021/04/03 11:09:19;;;;;;;8.38;2.55;;;;;;;;;;3609927;39;20078;-55
2021/04/03 11:11:45;;;;;;;10.20;3.17;;;;;;;;;;3607918;39;20126;-54
2021/04/03 11:14:10;;;;;;;6.40;2.03;;;;;;;;;;3609734;39;20092;-55
2021/04/03 11:16:35;;;;;;;7.85;2.53;;;;;;;;;;3606576;39;20282;-52
2021/04/03 11:19:01;;;;;;;6.57;2.67;;;;;;;;;;3605903;39;20351;-54
2021/04/03 11:21:26;;;;;;;10.82;3.20;;;;;;;;;;3605808;39;20091;-53
2021/04/03 11:23:52;;;;;;;8.98;4.13;;;;;;;;;;3609829;39;20075;-51
2021/04/03 11:26:17;;;;;;;8.18;2.40;;;;;;;;;;3610060;39;20083;-54
2021/04/03 11:28:43;;;;;;;6.38;2.17;;;;;;;;;;3610129;39;20434;-56
2021/04/03 11:31:08;;;;;;;6.30;2.38;;;;;;;;;;3607771;39;20072;-55
2021/04/03 11:33:34;;;;;;;8.48;2.75;;;;;;;;;;3607048;39;20357;-53
2021/04/03 11:35:59;;;;;;;7.68;2.60;;;;;;;;;;3600263;39;20071;-52
2021/04/03 11:38:24;;;;;;;9.05;2.28;;;;;;;;;;3609464;39;20084;-53
2021/04/03 11:40:50;;;;;;;6.95;2.28;;;;;;;;;;3607909;39;20462;-53
2021/04/03 11:43:16;;;;;;;7.88;2.38;;;;;;;;;;3609660;39;20068;-54
2021/04/03 11:45:42;;;;;;;9.27;2.75;;;;;;;;;;3601733;39;20098;-52
2021/04/03 11:48:08;;;;;;;4.18;1.60;;;;;;;;;;3605245;39;20079;-53
2021/04/03 11:50:35;;;;;;;11.20;1.67;;;;;;;;;;3605033;39;20072;-52
2021/04/03 11:53:01;;;;;;;5.10;2.03;;;;;;;;;;3602150;39;20135;-53
2021/04/03 11:55:28;;;;;;;5.35;2.00;;;;;;;;;;3604680;39;20445;-54
2021/04/03 11:57:54;;;;;;;4.75;1.45;;;;;;;;;;3607574;39;20087;-55
2021/04/03 12:00:21;;;;;;;6.75;1.88;;;;;;;;;;3608056;39;20071;-54
2021/04/03 12:02:49;;;;;;;8.15;1.92;;;;;;;;;;3606804;39;20063;-55
2021/04/03 12:05:16;;;;;;;5.70;1.95;;;;;;;;;;3604035;39;20389;-55
2021/04/03 12:07:42;;;;;;;8.30;2.25;;;;;;;;;;3603582;39;20325;-53
2021/04/03 12:10:16;;;;;;;6.93;2.33;;;;;;;;;;3608056;39;20167;-55
2021/04/03 12:12:43;;;;;;;6.93;1.80;;;;;;;;;;3606179;39;20625;-54
2021/04/03 12:15:13;;;;;;;4.18;1.10;;;;;;;;;;3605063;39;20678;-55
2021/04/03 12:17:39;;;;;;;3.23;1.33;;;;;;;;;;3605891;39;20067;-55
2021/04/03 12:20:07;;;;;;;5.78;1.73;;;;;;;;;;3606680;39;20067;-54
2021/04/03 12:22:33;;;;;;;5.57;1.50;;;;;;;;;;3608270;39;20063;-56
2021/04/03 12:24:59;;;;;;;7.93;1.60;;;;;;;;;;3608156;39;20076;-54
2021/04/03 12:27:24;;;;;;;5.07;1.48;;;;;;;;;;3607989;39;20063;-55
2021/04/03 12:29:50;;;;;;;6.80;1.83;;;;;;;;;;3609020;39;20071;-48
2021/04/03 12:32:16;;;;;;;4.45;1.60;;;;;;;;;;3606391;39;20071;-55
2021/04/03 12:34:42;;;;;;;9.55;1.70;;;;;;;;;;3607270;39;20071;-53
2021/04/03 12:37:09;;;;;;;7.80;1.67;;;;;;;;;;3599077;39;20095;-53
2021/04/03 12:39:34;;;;;;;5.70;1.75;;;;;;;;;;3606873;39;20149;-52
2021/04/03 12:42:00;;;;;;;4.22;1.33;;;;;;;;;;3607753;39;20075;-55
2021/04/03 12:44:25;;;;;;;5.05;1.98;;;;;;;;;;3607542;39;20075;-57
2021/04/03 12:46:50;;;;;;;3.53;1.48;;;;;;;;;;3609247;39;20103;-53
2021/04/03 12:49:16;;;;;;;4.32;1.45;;;;;;;;;;3605195;39;20119;-53
2021/04/03 12:51:41;;;;;;;4.47;1.70;;;;;;;;;;3604213;39;20090;-53
2021/04/03 12:54:07;;;;;;;4.95;1.58;;;;;;;;;;3604195;39;20443;-55
2021/04/03 12:56:32;;;;;;;4.30;1.42;;;;;;;;;;3607595;39;20469;-56
2021/04/03 12:58:57;;;;;;;3.45;1.33;;;;;;;;;;3607571;39;20136;-51
2021/04/03 13:01:23;;;;;;;4.32;1.48;;;;;;;;;;3608284;39;20070;-53
2021/04/03 13:03:49;;;;;;;6.82;1.73;;;;;;;;;;3605030;39;20590;-55
2021/04/03 13:06:15;;;;;;;4.80;1.90;;;;;;;;;;3610699;39;20122;-55
2021/04/03 13:08:40;;;;;;;3.80;1.65;;;;;;;;;;3608184;39;20079;-52
2021/04/03 13:11:06;;;;;;;3.55;1.52;;;;;;;;;;3608461;39;20091;-56
2021/04/03 13:13:31;;;;;;;9.57;2.40;;;;;;;;;;3608803;39;20290;-54
2021/04/03 13:15:57;;;;;;;6.03;2.42;;;;;;;;;;3611558;39;20290;-57
2021/04/03 13:18:22;;;;;;;8.43;2.30;;;;;;;;;;3611509;39;20079;-50
2021/04/03 13:20:48;;;;;;;4.97;1.73;;;;;;;;;;3611111;39;20067;-55
2021/04/03 13:23:14;;;;;;;3.40;1.17;;;;;;;;;;3609313;39;20145;-53
2021/04/03 13:25:41;;;;;;;4.82;1.98;;;;;;;;;;3609278;39;20075;-55
2021/04/03 13:28:06;;;;;;;7.25;1.80;;;;;;;;;;3613030;39;20266;-54
2021/04/03 13:30:32;;;;;;;3.85;1.50;;;;;;;;;;3612039;39;20166;-54
2021/04/03 13:32:57;;;;;;;7.30;2.30;;;;;;;;;;3611882;39;20063;-50
2021/04/03 13:35:23;;;;;;;4.80;2.05;;;;;;;;;;3609853;39;20063;-55
2021/04/03 13:37:48;;;;;;;7.43;2.00;;;;;;;;;;3611827;39;20075;-54
2021/04/03 13:40:15;;;;;;;5.55;2.03;;;;;;;;;;3613100;39;20069;-54
2021/04/03 13:42:40;;;;;;;8.52;2.28;;;;;;;;;;3610775;39;20171;-55
2021/04/03 13:45:06;;;;;;;5.35;1.95;;;;;;;;;;3612109;39;20106;-55
2021/04/03 13:47:32;;;;;;;6.65;1.92;;;;;;;;;;3612132;39;20086;-53
2021/04/03 13:49:58;;;;;;;6.53;2.35;;;;;;;;;;3612933;39;20168;-56
2021/04/03 13:52:23;;;;;;;5.13;1.98;;;;;;;;;;3608967;39;20067;-53
2021/04/03 13:54:48;;;;;;;6.53;2.08;;;;;;;;;;3611830;39;20075;-54
2021/04/03 13:57:14;;;;;;;6.50;2.53;;;;;;;;;;3613072;39;20193;-52
2021/04/03 13:59:39;;;;;;;7.30;2.40;;;;;;;;;;3611253;39;20167;-48
2021/04/03 14:02:05;;;;;;;4.57;2.08;;;;;;;;;;3612670;39;20071;-51
2021/04/03 14:04:31;;;;;;;5.85;1.80;;;;;;;;;;3612100;39;20059;-51
2021/04/03 14:06:56;;;;;;;7.70;3.05;;;;;;;;;;3613028;39;20157;-55
2021/04/03 14:09:22;;;;;;;6.75;2.75;;;;;;;;;;3612019;39;20083;-56
2021/04/03 14:11:47;;;;;;;8.20;2.67;;;;;;;;;;3609782;39;20067;-52
2021/04/03 14:14:13;;;;;;;5.35;2.65;;;;;;;;;;3609565;39;20075;-56
2021/04/03 14:16:38;;;;;;;4.55;1.95;;;;;;;;;;3610357;39;20192;-54
2021/04/03 14:19:03;;;;;;;6.85;2.72;;;;;;;;;;3612091;39;20259;-53
2021/04/03 14:21:29;;;;;;;5.53;2.28;;;;;;;;;;3611693;39;20347;-56
2021/04/03 14:23:54;;;;;;;6.00;2.00;;;;;;;;;;3610956;39;20067;-52
2021/04/03 14:26:20;;;;;;;3.58;1.88;;;;;;;;;;3611482;39;20163;-54
2021/04/03 14:28:46;;;;;;;8.60;2.50;;;;;;;;;;3611469;39;20083;-54
2021/04/03 14:31:12;;;;;;;13.90;2.40;;;;;;;;;;3611956;39;20078;-53
2021/04/03 14:33:37;;;;;;;7.95;2.40;;;;;;;;;;3610790;39;20400;-55
2021/04/03 14:36:03;;;;;;;4.70;1.95;;;;;;;;;;3612417;39;20183;-55
2021/04/03 14:38:29;;;;;;;3.70;1.80;;;;;;;;;;3611302;39;20394;-54
2021/04/03 14:40:57;;;;;;;4.25;2.05;;;;;;;;;;3612579;39;20070;-55
2021/04/03 14:43:22;;;;;;;4.70;2.17;;;;;;;;;;3612569;39;20067;-55